Time;durP1;ratioP1;P1;durP2;ratioP2;P2;SDS_P1;SDS_P2;PMS_P1;PMS_P2;Temp;Humidity;BMP_temperature;BMP_pressure;BME280_temperature;BME280_humidity;BME280_pressure;Samples;Min_cycle;Max_cycle;Signal;HPM_P1;HPM_P2
2023/08/13 00:01:50;;;;;;;7.43;3.10;;;15.90;99.90;;;;;;5043398;28;20033;-65
2023/08/13 00:04:15;;;;;;;8.55;3.15;;;15.90;99.90;;;;;;5046487;28;20033;-65
2023/08/13 00:06:41;;;;;;;7.45;3.33;;;15.90;99.90;;;;;;5044589;28;20038;-66
2023/08/13 00:09:07;;;;;;;16.73;3.60;;;16.00;99.90;;;;;;5042798;28;20021;-65
2023/08/13 00:11:32;;;;;;;4.28;3.05;;;16.00;99.90;;;;;;5046217;28;20036;-65
2023/08/13 00:13:58;;;;;;;13.00;2.92;;;16.10;99.90;;;;;;5046775;28;20104;-66
2023/08/13 00:16:24;;;;;;;10.05;3.42;;;16.10;99.90;;;;;;5051809;28;20024;-65
2023/08/13 00:18:49;;;;;;;9.30;3.47;;;16.20;99.90;;;;;;5039713;28;20029;-66
2023/08/13 00:21:15;;;;;;;9.73;3.42;;;16.20;99.90;;;;;;5046871;28;20116;-65
2023/08/13 00:23:41;;;;;;;8.38;3.13;;;16.30;99.90;;;;;;5048746;28;20024;-65
2023/08/13 00:26:06;;;;;;;12.45;2.50;;;16.30;99.90;;;;;;5045343;28;20060;-66
2023/08/13 00:28:32;;;;;;;7.03;2.65;;;16.20;99.90;;;;;;5046612;28;20029;-65
2023/08/13 00:30:57;;;;;;;7.18;2.97;;;16.20;99.90;;;;;;5051708;28;20489;-67
2023/08/13 00:33:23;;;;;;;9.13;2.92;;;16.20;99.90;;;;;;5044510;28;20017;-66
2023/08/13 00:35:51;;;;;;;5.72;2.42;;;16.20;99.90;;;;;;5045227;28;20036;-68
2023/08/13 00:38:16;;;;;;;8.60;2.95;;;16.20;99.90;;;;;;5042242;28;20033;-67
2023/08/13 00:40:42;;;;;;;5.32;2.50;;;16.20;99.90;;;;;;5051979;28;20040;-64
2023/08/13 00:43:08;;;;;;;6.68;2.30;;;16.20;99.90;;;;;;5031549;28;20052;-66
2023/08/13 00:45:35;;;;;;;9.43;3.03;;;16.20;99.90;;;;;;5043557;28;20017;-62
2023/08/13 00:48:01;;;;;;;10.20;3.80;;;16.10;99.90;;;;;;5047451;28;20021;-67
2023/08/13 00:50:28;;;;;;;11.90;3.13;;;16.10;99.90;;;;;;5048198;28;20085;-61
2023/08/13 00:52:53;;;;;;;10.90;3.03;;;16.10;99.90;;;;;;5044923;28;20025;-62
2023/08/13 00:55:19;;;;;;;7.72;3.65;;;16.10;99.90;;;;;;5048772;28;20521;-67
2023/08/13 00:57:45;;;;;;;10.05;3.10;;;16.00;99.90;;;;;;5046211;28;20048;-65
2023/08/13 01:00:12;;;;;;;8.50;2.35;;;16.00;99.90;;;;;;5031043;28;20407;-65
2023/08/13 01:02:38;;;;;;;11.45;3.05;;;15.90;99.90;;;;;;5047788;28;20029;-65
2023/08/13 01:05:07;;;;;;;9.52;2.83;;;15.90;99.90;;;;;;5048675;28;20512;-65
2023/08/13 01:07:41;;;;;;;6.47;3.30;;;15.90;99.90;;;;;;5048036;28;20033;-67
2023/08/13 01:10:15;;;;;;;8.93;3.15;;;15.80;99.90;;;;;;5049058;28;20100;-65
2023/08/13 01:12:49;;;;;;;8.93;2.72;;;15.80;99.90;;;;;;5038922;28;20039;-64
2023/08/13 01:15:20;;;;;;;11.48;3.33;;;15.90;99.90;;;;;;5037013;28;20107;-65
2023/08/13 01:17:48;;;;;;;5.43;3.15;;;15.90;99.90;;;;;;5046259;28;20033;-64
2023/08/13 01:20:15;;;;;;;6.47;2.72;;;15.90;99.90;;;;;;5051845;28;20027;-62
2023/08/13 01:22:48;;;;;;;9.30;3.38;;;15.90;99.90;;;;;;5041738;28;20068;-69
2023/08/13 01:25:14;;;;;;;5.50;3.25;;;16.00;99.90;;;;;;5045802;28;20445;-64
2023/08/13 01:27:57;;;;;;;14.93;3.13;;;16.00;99.90;;;;;;5044280;28;20394;-64
2023/08/13 01:30:29;;;;;;;10.43;3.35;;;16.10;99.90;;;;;;5033536;28;20072;-65
2023/08/13 01:33:05;;;;;;;7.25;3.30;;;16.20;99.90;;;;;;5049470;28;20044;-65
2023/08/13 01:35:32;;;;;;;7.47;3.60;;;16.30;99.90;;;;;;5042956;28;20026;-65
2023/08/13 01:37:59;;;;;;;10.85;3.65;;;16.20;99.90;;;;;;5036597;28;20028;-65
2023/08/13 01:40:25;;;;;;;7.55;3.40;;;16.30;99.90;;;;;;5047284;28;20052;-66
2023/08/13 01:42:51;;;;;;;4.65;2.90;;;16.30;99.90;;;;;;5036587;28;20060;-66
2023/08/13 01:45:16;;;;;;;6.88;3.00;;;16.20;99.90;;;;;;5042873;28;20437;-65
2023/08/13 01:47:42;;;;;;;8.05;3.03;;;16.20;99.90;;;;;;5041241;28;20041;-64
2023/08/13 01:50:08;;;;;;;5.03;2.85;;;16.20;99.90;;;;;;5038632;28;20063;-67
2023/08/13 01:52:33;;;;;;;6.93;3.00;;;16.30;99.90;;;;;;5040503;28;20025;-65
2023/08/13 01:54:59;;;;;;;7.32;2.33;;;16.30;99.90;;;;;;5036198;28;20135;-64
2023/08/13 01:57:24;;;;;;;10.77;2.88;;;16.30;99.90;;;;;;5044200;28;20029;-63
2023/08/13 01:59:50;;;;;;;6.72;2.80;;;16.30;99.90;;;;;;5005453;28;20037;-65
2023/08/13 02:02:16;;;;;;;8.77;3.53;;;16.20;99.90;;;;;;5042731;28;20503;-65
2023/08/13 02:04:41;;;;;;;5.72;2.92;;;16.20;99.90;;;;;;5038147;28;20088;-66
2023/08/13 02:07:07;;;;;;;8.27;3.15;;;16.00;99.90;;;;;;5049813;28;20032;-65
2023/08/13 02:09:33;;;;;;;6.30;3.10;;;16.00;99.90;;;;;;5039538;28;20071;-64
2023/08/13 02:11:58;;;;;;;7.53;3.20;;;15.90;99.90;;;;;;5042321;28;20497;-65
2023/08/13 02:14:24;;;;;;;5.78;3.10;;;15.80;99.90;;;;;;5043933;28;20509;-64
2023/08/13 02:16:50;;;;;;;8.20;3.15;;;15.80;99.90;;;;;;5047033;28;20102;-64
2023/08/13 02:19:15;;;;;;;8.25;3.45;;;15.80;99.90;;;;;;5049855;28;20446;-65
2023/08/13 02:21:41;;;;;;;9.10;3.35;;;15.70;99.90;;;;;;5046508;28;20067;-65
2023/08/13 02:24:06;;;;;;;8.48;3.55;;;15.70;99.90;;;;;;5047445;28;20024;-65
2023/08/13 02:26:32;;;;;;;4.32;2.83;;;15.60;99.90;;;;;;5048907;28;20021;-64
2023/08/13 02:28:58;;;;;;;11.38;3.58;;;15.60;99.90;;;;;;5042071;28;20017;-66
2023/08/13 02:31:23;;;;;;;8.02;3.25;;;15.60;99.90;;;;;;5045057;28;20486;-67
2023/08/13 02:33:49;;;;;;;9.30;3.30;;;15.50;99.90;;;;;;5040714;28;20094;-65
2023/08/13 02:36:14;;;;;;;9.38;4.05;;;15.50;99.90;;;;;;5041231;28;20025;-65
2023/08/13 02:38:40;;;;;;;15.85;4.00;;;15.50;99.90;;;;;;5040768;28;20017;-65
2023/08/13 02:41:05;;;;;;;11.00;3.58;;;15.50;99.90;;;;;;5037076;28;20057;-66
2023/08/13 02:43:50;;;;;;;5.93;3.70;;;15.40;99.90;;;;;;5035670;28;20040;-65
2023/08/13 02:46:16;;;;;;;12.77;3.90;;;15.40;99.90;;;;;;5046120;28;20079;-65
2023/08/13 02:48:41;;;;;;;6.28;3.40;;;15.30;99.90;;;;;;5037536;28;20037;-64
2023/08/13 02:51:07;;;;;;;8.88;3.95;;;15.30;99.90;;;;;;5037308;28;20051;-66
2023/08/13 02:53:32;;;;;;;6.65;3.70;;;15.30;99.90;;;;;;5038468;28;20029;-65
2023/08/13 02:55:58;;;;;;;11.77;4.20;;;15.30;99.90;;;;;;5038451;28;20143;-64
2023/08/13 02:58:23;;;;;;;6.65;3.75;;;15.30;99.90;;;;;;5044293;28;20029;-65
2023/08/13 03:00:49;;;;;;;9.43;4.90;;;15.40;99.90;;;;;;5021205;28;20068;-64
2023/08/13 03:03:14;;;;;;;9.60;4.28;;;15.40;99.90;;;;;;5041601;28;20029;-63
2023/08/13 03:05:40;;;;;;;6.47;4.13;;;15.40;99.90;;;;;;5038698;28;20021;-64
2023/08/13 03:08:06;;;;;;;8.68;3.80;;;15.30;99.90;;;;;;5037944;28;20022;-62
2023/08/13 03:10:32;;;;;;;4.63;3.17;;;15.20;99.90;;;;;;5043723;28;20371;-66
2023/08/13 03:12:57;;;;;;;4.47;2.95;;;15.20;99.90;;;;;;5044681;28;20100;-66
2023/08/13 03:15:23;;;;;;;10.90;3.28;;;15.20;99.90;;;;;;5044583;28;20089;-63
2023/08/13 03:17:49;;;;;;;9.15;3.63;;;15.10;99.90;;;;;;5041266;28;20073;-64
2023/08/13 03:20:14;;;;;;;6.35;3.47;;;15.00;99.90;;;;;;5038489;28;20036;-66
2023/08/13 03:22:40;;;;;;;11.45;3.40;;;15.00;99.90;;;;;;5039929;28;20060;-64
2023/08/13 03:25:06;;;;;;;13.68;3.85;;;15.00;99.90;;;;;;5038751;28;20036;-61
2023/08/13 03:27:31;;;;;;;5.78;3.53;;;15.00;99.90;;;;;;5039124;28;20025;-65
2023/08/13 03:29:57;;;;;;;7.35;3.05;;;15.00;99.90;;;;;;5040102;28;20028;-65
2023/08/13 03:32:22;;;;;;;8.73;3.17;;;15.00;99.90;;;;;;5038543;28;20033;-65
2023/08/13 03:34:48;;;;;;;8.50;3.95;;;14.90;99.90;;;;;;5042838;28;20112;-66
2023/08/13 03:37:13;;;;;;;9.38;3.63;;;14.90;99.90;;;;;;5040629;28;20040;-65
2023/08/13 03:39:41;;;;;;;7.45;3.88;;;14.80;99.90;;;;;;5041384;28;20029;-66
2023/08/13 03:42:07;;;;;;;10.88;4.53;;;14.90;99.90;;;;;;5043251;28;20037;-65
2023/08/13 03:44:32;;;;;;;9.48;4.28;;;14.90;99.90;;;;;;5042537;28;20501;-66
2023/08/13 03:46:58;;;;;;;8.57;4.50;;;14.90;99.90;;;;;;5044904;28;20482;-63
2023/08/13 03:49:23;;;;;;;9.82;4.65;;;14.80;99.90;;;;;;5048929;28;20378;-64
2023/08/13 03:51:49;;;;;;;15.35;4.68;;;14.80;99.90;;;;;;5038608;28;20029;-65
2023/08/13 03:54:15;;;;;;;7.63;3.92;;;14.70;99.90;;;;;;5044561;28;20190;-64
2023/08/13 03:56:40;;;;;;;9.20;4.00;;;14.70;99.90;;;;;;5037556;28;20568;-63
2023/08/13 03:59:06;;;;;;;7.85;3.67;;;14.60;99.90;;;;;;5034279;28;20112;-64
2023/08/13 04:01:31;;;;;;;10.25;4.68;;;14.70;99.90;;;;;;5007490;28;20068;-62
2023/08/13 04:03:57;;;;;;;9.45;4.47;;;14.70;99.90;;;;;;5034596;28;20037;-64
2023/08/13 04:06:22;;;;;;;16.63;4.32;;;14.80;99.90;;;;;;5034776;28;20057;-63
2023/08/13 04:08:48;;;;;;;10.32;4.55;;;14.70;99.90;;;;;;5029964;28;20032;-65
2023/08/13 04:11:14;;;;;;;13.07;5.03;;;14.70;99.90;;;;;;5036855;28;20530;-66
2023/08/13 04:13:39;;;;;;;15.90;3.95;;;14.70;99.90;;;;;;5035325;28;20047;-62
2023/08/13 04:16:05;;;;;;;7.70;3.95;;;14.70;99.90;;;;;;5035657;28;20031;-63
2023/08/13 04:18:30;;;;;;;9.20;4.10;;;14.80;99.90;;;;;;5039856;28;20559;-64
2023/08/13 04:20:56;;;;;;;15.18;4.10;;;14.90;99.90;;;;;;5039563;28;20035;-66
2023/08/13 04:23:21;;;;;;;9.20;3.95;;;14.90;99.90;;;;;;5038123;28;20643;-63
2023/08/13 04:25:47;;;;;;;10.88;4.40;;;15.00;99.90;;;;;;5037435;28;20029;-64
2023/08/13 04:28:13;;;;;;;8.30;3.83;;;14.90;99.90;;;;;;5036793;28;20037;-63
2023/08/13 04:30:39;;;;;;;10.48;3.92;;;15.00;99.90;;;;;;5037402;28;20430;-65
2023/08/13 04:33:04;;;;;;;7.85;3.58;;;15.00;99.90;;;;;;5035882;28;20032;-65
2023/08/13 04:35:30;;;;;;;6.50;3.50;;;15.00;99.90;;;;;;5039543;28;20664;-65
2023/08/13 04:37:56;;;;;;;6.90;3.72;;;15.10;99.90;;;;;;5037944;28;20072;-64
2023/08/13 04:40:21;;;;;;;7.40;4.32;;;15.10;99.90;;;;;;5041346;28;20494;-66
2023/08/13 04:42:47;;;;;;;19.27;4.72;;;15.10;99.90;;;;;;5036428;28;20033;-66
2023/08/13 04:45:13;;;;;;;10.30;4.20;;;15.20;99.90;;;;;;5040066;28;20017;-65
2023/08/13 04:47:38;;;;;;;7.80;3.83;;;15.30;99.90;;;;;;5048154;28;20104;-65
2023/08/13 04:50:06;;;;;;;9.43;3.55;;;15.30;99.90;;;;;;5034658;28;20033;-65
2023/08/13 04:52:32;;;;;;;7.90;3.83;;;15.30;99.90;;;;;;5042596;28;20465;-65
2023/08/13 04:54:57;;;;;;;9.10;3.83;;;15.30;99.90;;;;;;5039141;28;20025;-65
2023/08/13 04:57:23;;;;;;;12.75;4.72;;;15.30;99.90;;;;;;5043076;28;20154;-65
2023/08/13 04:59:48;;;;;;;11.40;3.95;;;15.30;99.90;;;;;;5044720;28;20035;-65
2023/08/13 05:02:14;;;;;;;12.15;3.78;;;15.30;99.90;;;;;;5014967;28;20045;-66
2023/08/13 05:04:39;;;;;;;10.38;4.28;;;15.40;99.90;;;;;;5043083;28;20502;-63
2023/08/13 05:07:05;;;;;;;5.20;3.45;;;15.50;99.90;;;;;;5036840;28;20022;-66
2023/08/13 05:09:31;;;;;;;5.05;3.10;;;15.60;99.90;;;;;;5040180;28;20167;-65
2023/08/13 05:11:57;;;;;;;5.57;3.40;;;15.60;99.90;;;;;;5041183;28;20037;-65
2023/08/13 05:14:22;;;;;;;11.98;3.88;;;15.70;99.90;;;;;;5044590;28;20028;-66
2023/08/13 05:16:48;;;;;;;11.07;3.53;;;15.80;99.90;;;;;;5036441;28;20034;-64
2023/08/13 05:19:14;;;;;;;9.10;3.28;;;15.90;99.90;;;;;;5049048;28;20039;-65
2023/08/13 05:21:39;;;;;;;9.48;4.28;;;16.00;99.90;;;;;;5044111;28;20025;-65
2023/08/13 05:24:06;;;;;;;6.85;3.13;;;16.00;99.90;;;;;;5040992;28;20613;-66
2023/08/13 05:26:31;;;;;;;8.02;3.85;;;16.00;99.90;;;;;;5043335;28;20380;-66
2023/08/13 05:28:57;;;;;;;9.07;3.55;;;16.00;99.90;;;;;;5039708;28;20025;-65
2023/08/13 05:31:22;;;;;;;6.05;3.33;;;16.00;99.90;;;;;;5040251;28;20098;-65
2023/08/13 05:33:48;;;;;;;9.43;3.30;;;16.10;99.90;;;;;;5042982;28;20032;-66
2023/08/13 05:36:13;;;;;;;8.88;3.10;;;16.20;99.90;;;;;;5037403;28;20028;-65
2023/08/13 05:38:39;;;;;;;8.18;3.97;;;16.40;99.90;;;;;;5048576;28;20036;-59
2023/08/13 05:41:05;;;;;;;8.35;3.17;;;16.40;99.90;;;;;;5038469;28;20017;-64
2023/08/13 05:43:31;;;;;;;8.05;3.20;;;16.50;99.90;;;;;;5041929;28;20111;-64
2023/08/13 05:45:56;;;;;;;6.35;2.97;;;16.50;99.90;;;;;;5034971;28;20057;-64
2023/08/13 05:48:22;;;;;;;9.05;2.78;;;16.60;99.90;;;;;;5045314;28;20394;-64
2023/08/13 05:50:48;;;;;;;3.70;2.65;;;16.80;99.90;;;;;;5042069;28;20486;-62
2023/08/13 05:53:13;;;;;;;6.55;3.50;;;17.10;99.90;;;;;;5039102;28;20588;-64
2023/08/13 05:55:39;;;;;;;4.40;2.78;;;17.20;99.90;;;;;;5038428;28;20029;-65
2023/08/13 05:58:05;;;;;;;6.70;2.70;;;17.40;99.90;;;;;;5035601;28;20394;-66
2023/08/13 06:00:31;;;;;;;7.85;2.42;;;17.70;99.90;;;;;;5018450;28;20036;-63
2023/08/13 06:02:57;;;;;;;5.47;2.53;;;18.40;99.90;;;;;;5033328;28;20029;-66
2023/08/13 06:05:23;;;;;;;9.73;2.15;;;18.80;99.90;;;;;;5037748;28;20029;-66
2023/08/13 06:07:48;;;;;;;4.43;2.17;;;19.40;99.90;;;;;;5036960;28;20108;-66
2023/08/13 06:10:14;;;;;;;4.35;2.15;;;20.00;99.90;;;;;;5042042;28;20040;-65
2023/08/13 06:12:40;;;;;;;4.32;2.00;;;20.80;99.90;;;;;;5037195;28;20151;-63
2023/08/13 06:15:06;;;;;;;2.17;1.60;;;21.50;99.90;;;;;;5044294;28;20040;-67
2023/08/13 06:17:32;;;;;;;5.22;2.35;;;21.30;99.90;;;;;;5044911;28;20115;-66
2023/08/13 06:20:00;;;;;;;2.70;1.75;;;21.50;99.90;;;;;;5035405;28;20084;-66
2023/08/13 06:22:25;;;;;;;3.05;2.00;;;21.50;99.90;;;;;;5042512;28;20029;-67
2023/08/13 06:24:51;;;;;;;8.75;2.40;;;20.90;99.90;;;;;;5042449;28;20037;-65
2023/08/13 06:27:16;;;;;;;5.97;1.88;;;20.80;99.90;;;;;;5041700;28;20486;-67
2023/08/13 06:29:42;;;;;;;5.55;2.28;;;20.60;99.90;;;;;;5038559;28;20029;-65
2023/08/13 06:32:08;;;;;;;5.35;1.73;;;20.50;99.90;;;;;;5045131;28;20056;-66
2023/08/13 06:34:34;;;;;;;4.05;1.90;;;20.60;99.90;;;;;;5044951;28;20025;-65
2023/08/13 06:37:00;;;;;;;4.50;2.25;;;20.70;99.90;;;;;;5043512;28;20656;-65
2023/08/13 06:39:26;;;;;;;2.88;1.83;;;21.00;99.90;;;;;;5043965;28;20032;-64
2023/08/13 06:41:51;;;;;;;2.40;1.45;;;21.30;99.90;;;;;;5033232;28;20033;-67
2023/08/13 06:44:19;;;;;;;4.32;1.85;;;21.30;99.90;;;;;;5034257;28;20021;-65
2023/08/13 06:46:45;;;;;;;3.70;1.92;;;21.30;99.90;;;;;;5034115;28;20414;-68
2023/08/13 06:49:11;;;;;;;9.40;2.20;;;21.70;99.90;;;;;;5033480;28;20509;-65
2023/08/13 06:51:36;;;;;;;4.88;2.10;;;22.70;99.90;;;;;;5035198;28;20056;-67
2023/08/13 06:54:02;;;;;;;5.75;1.88;;;23.30;99.90;;;;;;5040349;28;20025;-67
2023/08/13 06:56:30;;;;;;;8.93;1.75;;;23.70;99.90;;;;;;5041342;28;20024;-67
2023/08/13 06:58:56;;;;;;;3.90;1.58;;;23.30;99.90;;;;;;5039970;28;20043;-66
2023/08/13 07:01:22;;;;;;;7.50;2.55;;;23.20;99.90;;;;;;5008192;28;20080;-66
2023/08/13 07:03:47;;;;;;;5.68;1.58;;;23.00;99.90;;;;;;5038999;28;20068;-66
2023/08/13 07:06:13;;;;;;;5.00;1.85;;;23.20;99.90;;;;;;5043134;28;20028;-67
2023/08/13 07:08:38;;;;;;;5.57;2.00;;;23.40;99.90;;;;;;5043129;28;20031;-60
2023/08/13 07:11:04;;;;;;;4.50;1.40;;;24.00;99.90;;;;;;5037820;28;20037;-65
2023/08/13 07:13:30;;;;;;;6.93;2.10;;;24.40;99.90;;;;;;5039360;28;20045;-66
2023/08/13 07:15:55;;;;;;;3.28;1.75;;;25.70;99.90;;;;;;5038649;28;20033;-68
2023/08/13 07:18:21;;;;;;;3.80;1.55;;;26.10;99.90;;;;;;5041899;28;20085;-67
2023/08/13 07:20:47;;;;;;;5.13;2.63;;;25.50;99.90;;;;;;5039111;28;20037;-67
2023/08/13 07:23:12;;;;;;;6.35;1.52;;;25.60;99.90;;;;;;5035303;28;21150;-66
2023/08/13 07:25:38;;;;;;;4.43;1.30;;;26.20;99.90;;;;;;5039287;28;20036;-65
2023/08/13 07:28:06;;;;;;;3.85;1.77;;;27.70;99.90;;;;;;5040642;28;20667;-65
2023/08/13 07:30:32;;;;;;;4.38;1.95;;;28.20;98.50;;;;;;5038375;28;20025;-67
2023/08/13 07:32:57;;;;;;;4.03;1.85;;;28.80;96.70;;;;;;5039135;28;20051;-65
2023/08/13 07:35:24;;;;;;;7.45;1.85;;;29.20;95.80;;;;;;5039203;28;20033;-66
2023/08/13 07:37:50;;;;;;;4.97;1.63;;;28.30;96.70;;;;;;5037994;28;20033;-66
2023/08/13 07:40:16;;;;;;;2.47;1.35;;;28.00;97.00;;;;;;5036917;28;20035;-66
2023/08/13 07:42:42;;;;;;;5.35;1.90;;;28.50;96.70;;;;;;5039756;28;20047;-64
2023/08/13 07:45:08;;;;;;;6.43;1.80;;;28.70;95.70;;;;;;5037608;28;20056;-64
2023/08/13 07:47:36;;;;;;;7.20;1.60;;;28.20;95.10;;;;;;5050510;28;20053;-63
2023/08/13 07:50:04;;;;;;;3.80;1.60;;;28.80;95.50;;;;;;5039226;28;20090;-64
2023/08/13 07:52:31;;;;;;;3.70;1.58;;;28.10;95.40;;;;;;5043587;28;20028;-64
2023/08/13 07:54:57;;;;;;;2.55;1.33;;;27.90;96.40;;;;;;5038510;28;20099;-64
2023/08/13 07:57:22;;;;;;;7.85;1.95;;;28.40;95.50;;;;;;5045976;28;20482;-63
2023/08/13 07:59:48;;;;;;;4.38;1.50;;;28.20;96.90;;;;;;5043104;28;20037;-64
2023/08/13 08:02:13;;;;;;;6.95;1.60;;;27.40;97.30;;;;;;5022881;28;20047;-65
2023/08/13 08:04:39;;;;;;;3.33;1.83;;;27.10;97.70;;;;;;5045661;28;20020;-60
2023/08/13 08:07:04;;;;;;;5.72;2.08;;;26.50;97.80;;;;;;5044772;28;20025;-65
2023/08/13 08:09:30;;;;;;;5.30;1.45;;;26.00;99.60;;;;;;5051389;28;20150;-66
2023/08/13 08:11:56;;;;;;;3.92;1.23;;;26.40;99.90;;;;;;5047985;28;20028;-66
2023/08/13 08:14:21;;;;;;;3.55;1.40;;;26.50;99.30;;;;;;5048368;28;20479;-67
2023/08/13 08:16:47;;;;;;;5.53;1.30;;;26.40;97.30;;;;;;5049886;28;20021;-65
2023/08/13 08:19:13;;;;;;;3.22;1.45;;;26.80;96.90;;;;;;5044382;28;20356;-66
2023/08/13 08:21:38;;;;;;;7.35;2.10;;;26.80;96.00;;;;;;5047870;28;21203;-64
2023/08/13 08:24:04;;;;;;;2.78;1.92;;;26.50;97.80;;;;;;5047382;28;20489;-64
2023/08/13 08:26:31;;;;;;;2.63;1.08;;;26.40;99.20;;;;;;5048552;28;20071;-64
2023/08/13 08:28:57;;;;;;;3.65;1.27;;;26.50;98.80;;;;;;5048700;28;20017;-65
2023/08/13 08:31:23;;;;;;;5.93;1.50;;;27.20;96.90;;;;;;5042484;28;20103;-66
2023/08/13 08:33:49;;;;;;;3.22;1.42;;;26.70;97.20;;;;;;5047975;28;20103;-64
2023/08/13 08:36:14;;;;;;;4.57;1.20;;;26.50;98.30;;;;;;5045611;28;20029;-64
2023/08/13 08:38:40;;;;;;;3.63;1.13;;;26.40;95.90;;;;;;5045163;28;20017;-60
2023/08/13 08:41:07;;;;;;;7.15;1.83;;;26.70;94.80;;;;;;5044186;28;20061;-67
2023/08/13 08:43:36;;;;;;;9.68;1.50;;;26.70;94.60;;;;;;5049533;28;20516;-67
2023/08/13 08:46:03;;;;;;;4.25;1.38;;;26.70;95.90;;;;;;5043249;28;20021;-66
2023/08/13 08:48:32;;;;;;;5.90;1.63;;;27.00;94.60;;;;;;5048926;28;20059;-66
2023/08/13 08:50:57;;;;;;;9.93;1.90;;;26.80;93.50;;;;;;5043278;28;20545;-67
2023/08/13 08:53:25;;;;;;;3.00;1.10;;;27.00;93.20;;;;;;5037933;28;20108;-66
2023/08/13 08:55:52;;;;;;;3.38;1.10;;;27.50;92.50;;;;;;5045171;28;20029;-64
2023/08/13 08:58:17;;;;;;;7.22;1.33;;;28.40;91.70;;;;;;5043884;28;20032;-62
2023/08/13 09:00:43;;;;;;;8.02;1.33;;;28.70;88.70;;;;;;5043686;28;20093;-64
2023/08/13 09:03:09;;;;;;;5.53;1.30;;;29.20;86.10;;;;;;5024550;28;20052;-65
2023/08/13 09:05:38;;;;;;;6.88;1.50;;;29.10;86.50;;;;;;5040420;28;20049;-63
2023/08/13 09:08:13;;;;;;;7.30;1.70;;;28.90;86.10;;;;;;5048126;28;20366;-65
2023/08/13 09:10:42;;;;;;;5.57;0.90;;;29.40;84.40;;;;;;5047030;28;20036;-63
2023/08/13 09:13:08;;;;;;;4.55;1.17;;;29.90;83.00;;;;;;5045023;28;20543;-65
2023/08/13 09:15:34;;;;;;;4.25;1.40;;;30.40;80.10;;;;;;5045126;28;20108;-64
2023/08/13 09:18:00;;;;;;;4.95;1.70;;;30.00;79.80;;;;;;5046333;28;20100;-64
2023/08/13 09:20:26;;;;;;;5.25;1.25;;;29.10;79.90;;;;;;5044110;28;20017;-64
2023/08/13 09:22:51;;;;;;;2.92;1.15;;;29.00;82.50;;;;;;5041794;28;20033;-66
2023/08/13 09:25:19;;;;;;;4.55;1.27;;;29.00;83.10;;;;;;5042962;28;20032;-64
2023/08/13 09:27:45;;;;;;;10.30;1.00;;;29.70;81.50;;;;;;5040999;28;20508;-65
2023/08/13 09:30:28;;;;;;;5.93;1.27;;;30.20;79.70;;;;;;5047070;28;20079;-64
2023/08/13 09:32:56;;;;;;;4.25;1.27;;;30.20;80.30;;;;;;5049130;28;20347;-64
2023/08/13 09:35:21;;;;;;;5.95;1.25;;;31.10;77.80;;;;;;5046790;28;20128;-65
2023/08/13 09:37:47;;;;;;;5.90;1.40;;;30.80;77.50;;;;;;5047764;28;20124;-65
2023/08/13 09:40:13;;;;;;;5.55;1.80;;;30.90;75.10;;;;;;5045274;28;20558;-64
2023/08/13 09:42:39;;;;;;;8.38;1.30;;;30.60;74.60;;;;;;5046175;28;20504;-63
2023/08/13 09:45:09;;;;;;;5.60;1.42;;;30.60;77.30;;;;;;5043291;28;20386;-64
2023/08/13 09:47:39;;;;;;;3.10;1.30;;;30.30;76.40;;;;;;5042422;28;20013;-65
2023/08/13 09:50:05;;;;;;;7.18;1.15;;;30.00;78.00;;;;;;5042190;28;20489;-64
2023/08/13 09:52:32;;;;;;;4.45;1.30;;;29.30;77.20;;;;;;5049026;28;20537;-64
2023/08/13 09:55:15;;;;;;;4.20;1.40;;;29.30;77.80;;;;;;5037030;28;20164;-64
2023/08/13 09:57:42;;;;;;;;;;;29.60;76.20;;;;;;5046934;28;20161;-64
2023/08/13 10:00:10;;;;;;;8.43;1.83;;;29.70;79.60;;;;;;5047872;28;19904;-64
2023/08/13 10:02:37;;;;;;;6.15;1.35;;;29.40;79.10;;;;;;5029022;28;20052;-63
2023/08/13 10:05:03;;;;;;;7.40;1.52;;;28.80;79.70;;;;;;5043093;28;20032;-65
2023/08/13 10:07:30;;;;;;;3.63;1.02;;;28.50;80.50;;;;;;5046846;28;20025;-65
2023/08/13 10:09:56;;;;;;;4.65;1.73;;;28.40;81.90;;;;;;5044992;28;20041;-64
2023/08/13 10:12:23;;;;;;;7.03;1.58;;;27.80;89.30;;;;;;5048747;28;20387;-65
2023/08/13 10:14:49;;;;;;;5.13;0.93;;;27.30;87.50;;;;;;5042053;28;20503;-65
2023/08/13 10:17:18;;;;;;;4.97;1.20;;;27.20;85.90;;;;;;5031361;28;20033;-64
2023/08/13 10:19:51;;;;;;;2.92;1.27;;;27.20;87.00;;;;;;5047052;28;20025;-64
2023/08/13 10:22:36;;;;;;;4.70;1.33;;;27.00;89.70;;;;;;5044381;28;20037;-64
2023/08/13 10:25:03;;;;;;;5.55;1.30;;;26.90;87.20;;;;;;5039303;28;20655;-64
2023/08/13 10:27:28;;;;;;;2.70;0.98;;;26.80;91.00;;;;;;5048290;28;20074;-64
2023/08/13 10:30:12;;;;;;;5.85;1.50;;;27.00;86.30;;;;;;5048872;28;20017;-65
2023/08/13 10:33:00;;;;;;;5.32;1.27;;;27.10;90.10;;;;;;5042347;28;20040;-61
2023/08/13 10:35:39;;;;;;;7.80;1.20;;;27.30;85.50;;;;;;5042119;28;20079;-64
2023/08/13 10:38:06;;;;;;;4.53;1.48;;;27.50;87.50;;;;;;5048705;28;20033;-64
2023/08/13 10:40:32;;;;;;;9.95;1.45;;;27.70;83.10;;;;;;5049638;28;20032;-64
2023/08/13 10:43:04;;;;;;;5.75;1.63;;;27.60;83.60;;;;;;5039155;28;20116;-63
2023/08/13 10:45:35;;;;;;;7.72;1.40;;;27.40;86.00;;;;;;5042097;28;20433;-66
2023/08/13 10:48:08;;;;;;;5.90;1.60;;;27.50;87.20;;;;;;5039367;28;20052;-65
2023/08/13 10:50:38;;;;;;;4.78;1.25;;;27.60;86.00;;;;;;5038023;28;20100;-64
2023/08/13 10:53:11;;;;;;;6.57;1.58;;;27.70;87.90;;;;;;5047170;28;20031;-64
2023/08/13 10:55:42;;;;;;;5.35;1.30;;;27.40;90.30;;;;;;5043763;28;20036;-65
2023/08/13 10:58:21;;;;;;;6.18;2.00;;;27.20;90.80;;;;;;5040533;28;20114;-65
2023/08/13 11:00:47;;;;;;;8.35;2.22;;;27.00;90.60;;;;;;5045466;28;20121;-63
2023/08/13 11:03:16;;;;;;;8.60;2.17;;;27.50;90.30;;;;;;5021587;28;20048;-63
2023/08/13 11:05:46;;;;;;;4.55;1.30;;;27.50;90.90;;;;;;5037322;28;20037;-65
2023/08/13 11:08:19;;;;;;;4.20;1.15;;;27.30;91.80;;;;;;5039981;28;20033;-65
2023/08/13 11:10:47;;;;;;;4.38;1.75;;;27.00;93.90;;;;;;5043211;28;20029;-64
2023/08/13 11:13:13;;;;;;;7.20;1.48;;;27.00;92.40;;;;;;5041694;28;20056;-65
2023/08/13 11:15:40;;;;;;;4.88;1.13;;;27.10;92.50;;;;;;5037215;28;20105;-64
2023/08/13 11:18:06;;;;;;;4.38;1.52;;;27.10;93.40;;;;;;5048156;28;20017;-63
2023/08/13 11:20:31;;;;;;;11.75;2.28;;;26.80;94.90;;;;;;5041002;28;20021;-64
2023/08/13 11:22:57;;;;;;;2.47;1.55;;;26.50;93.80;;;;;;5049132;28;20433;-65
2023/08/13 11:25:26;;;;;;;7.05;1.73;;;26.70;94.40;;;;;;5046122;28;20064;-65
2023/08/13 11:27:52;;;;;;;6.15;1.38;;;26.80;92.90;;;;;;5044723;28;20106;-64
2023/08/13 11:30:17;;;;;;;6.38;1.70;;;26.50;94.00;;;;;;5034833;28;20529;-64
2023/08/13 11:32:45;;;;;;;6.82;1.40;;;26.80;94.00;;;;;;5038143;28;20507;-63
2023/08/13 11:35:10;;;;;;;4.25;1.35;;;26.70;93.80;;;;;;5037371;28;20509;-67
2023/08/13 11:37:40;;;;;;;5.28;1.48;;;26.90;94.10;;;;;;5038591;28;20387;-66
2023/08/13 11:40:09;;;;;;;6.15;1.88;;;26.60;92.90;;;;;;5039277;28;20121;-65
2023/08/13 11:42:35;;;;;;;4.60;1.60;;;26.70;93.50;;;;;;5042663;28;20025;-65
2023/08/13 11:45:10;;;;;;;4.20;1.60;;;26.70;93.30;;;;;;5039810;28;20193;-65
2023/08/13 11:47:35;;;;;;;5.53;1.80;;;26.50;93.30;;;;;;5034251;28;20029;-67
2023/08/13 11:50:01;;;;;;;5.70;1.67;;;26.40;93.70;;;;;;5036575;28;20090;-66
2023/08/13 11:52:26;;;;;;;4.93;1.63;;;26.50;93.60;;;;;;5036848;28;20029;-63
2023/08/13 11:54:52;;;;;;;3.50;1.52;;;26.30;94.70;;;;;;5036021;28;20696;-66
2023/08/13 11:57:20;;;;;;;5.35;1.65;;;26.40;95.00;;;;;;5037140;28;20537;-66
2023/08/13 11:59:48;;;;;;;7.68;1.92;;;26.60;94.80;;;;;;5038722;28;20024;-66
2023/08/13 12:02:15;;;;;;;6.35;1.60;;;26.70;94.90;;;;;;5035258;28;20036;-67
2023/08/13 12:04:45;;;;;;;6.05;1.70;;;26.70;94.50;;;;;;5016924;28;20117;-63
2023/08/13 12:07:11;;;;;;;5.72;1.65;;;26.90;94.30;;;;;;5036965;28;20019;-67
2023/08/13 12:09:36;;;;;;;4.00;1.60;;;27.00;94.40;;;;;;5038962;28;20029;-68
2023/08/13 12:12:02;;;;;;;6.68;1.50;;;27.10;93.90;;;;;;5036945;28;20025;-67
2023/08/13 12:14:28;;;;;;;8.55;1.70;;;26.80;93.90;;;;;;5039077;28;20467;-66
2023/08/13 12:16:53;;;;;;;4.65;1.80;;;27.10;94.40;;;;;;5038801;28;20367;-67
2023/08/13 12:19:19;;;;;;;6.20;1.75;;;27.30;94.00;;;;;;5039012;28;20047;-65
2023/08/13 12:21:44;;;;;;;7.03;1.73;;;26.70;94.20;;;;;;5019159;28;20017;-67
2023/08/13 12:24:10;;;;;;;6.30;1.52;;;26.50;95.70;;;;;;5041976;28;20079;-66
2023/08/13 12:26:35;;;;;;;5.13;1.40;;;26.30;95.20;;;;;;5041657;28;20417;-67
2023/08/13 12:29:02;;;;;;;6.90;1.80;;;26.50;97.20;;;;;;5038969;28;20039;-66
2023/08/13 12:31:29;;;;;;;5.13;1.95;;;27.00;96.00;;;;;;5034323;28;20122;-64
2023/08/13 12:33:56;;;;;;;4.05;1.58;;;27.10;94.00;;;;;;5043001;28;20107;-65
2023/08/13 12:36:21;;;;;;;5.28;1.92;;;27.10;94.60;;;;;;5039102;28;20044;-67
2023/08/13 12:38:47;;;;;;;5.47;1.45;;;27.40;94.10;;;;;;5040164;28;20387;-67
2023/08/13 12:41:12;;;;;;;10.45;1.70;;;27.60;91.20;;;;;;5040507;28;20052;-66
2023/08/13 12:43:39;;;;;;;7.63;1.60;;;27.60;92.70;;;;;;5042449;28;20027;-67